Time;durP1;ratioP1;P1;durP2;ratioP2;P2;SDS_P1;SDS_P2;PMS_P1;PMS_P2;Temp;Humidity;BMP_temperature;BMP_pressure;BME280_temperature;BME280_humidity;BME280_pressure;Samples;Min_cycle;Max_cycle;Signal;HPM_P1;HPM_P2
2023/11/20 00:01:57;;;;;;;0.20;0.20;;;;;;;1.82;83.66;96751.66;5024149;28;20348;-63
2023/11/20 00:04:24;;;;;;;0.20;0.20;;;;;;;1.44;84.83;96681.31;5038963;28;20135;-63
2023/11/20 00:06:51;;;;;;;0.20;0.20;;;;;;;1.14;85.76;96633.16;5023479;28;20057;-62
2023/11/20 00:09:18;;;;;;;0.20;0.20;;;;;;;2.04;84.85;96732.38;5038901;28;20053;-63
2023/11/20 00:11:45;;;;;;;0.20;0.20;;;;;;;2.14;84.59;96740.19;5023726;28;20080;-63
2023/11/20 00:14:13;;;;;;;0.20;0.20;;;;;;;1.81;84.49;96720.00;5023847;28;20052;-62
2023/11/20 00:16:40;;;;;;;0.20;0.20;;;;;;;2.18;82.94;96736.50;5023551;28;20080;-62
2023/11/20 00:19:10;;;;;;;0.30;0.30;;;;;;;2.25;80.79;96749.66;5023908;28;20061;-63
2023/11/20 00:21:41;;;;;;;0.20;0.20;;;;;;;2.14;82.26;96734.75;5023758;28;20501;-63
2023/11/20 00:24:08;;;;;;;0.20;0.20;;;;;;;1.62;82.71;96700.41;5024175;28;20799;-62
2023/11/20 00:26:36;;;;;;;0.30;0.30;;;;;;;2.10;83.21;96737.34;5028447;28;20546;-63
2023/11/20 00:29:08;;;;;;;0.20;0.20;;;;;;;2.30;83.61;96746.78;5026404;28;20050;-64
2023/11/20 00:31:35;;;;;;;0.20;0.20;;;;;;;2.41;82.25;96745.28;5027289;28;20107;-63
2023/11/20 00:34:03;;;;;;;0.20;0.20;;;;;;;2.43;83.10;96762.19;5030968;28;20143;-63
2023/11/20 00:36:30;;;;;;;0.20;0.20;;;;;;;2.58;82.72;96748.78;5047215;28;20498;-64
2023/11/20 00:38:57;;;;;;;0.20;0.20;;;;;;;2.65;82.48;96737.34;5047209;28;20559;-63
2023/11/20 00:41:24;;;;;;;0.20;0.20;;;;;;;2.62;81.11;96757.97;5047403;28;20056;-65
2023/11/20 00:43:50;;;;;;;0.20;0.20;;;;;;;2.74;82.11;96740.84;5046625;28;20454;-62
2023/11/20 00:46:17;;;;;;;0.20;0.20;;;;;;;0.01;80.76;96264.13;5047474;28;20063;-63
2023/11/20 00:48:44;;;;;;;0.20;0.20;;;;;;;2.80;80.51;96709.44;5047749;28;20067;-64
2023/11/20 00:51:13;;;;;;;0.20;0.20;;;;;;;2.92;79.79;96726.00;5047354;28;20053;-63
2023/11/20 00:53:40;;;;;;;0.20;0.20;;;;;;;2.73;79.90;96717.38;5047346;28;20128;-63
2023/11/20 00:56:07;;;;;;;0.22;0.22;;;;;;;2.99;79.82;96693.44;5047079;28;20053;-63
2023/11/20 00:58:34;;;;;;;0.20;0.20;;;;;;;2.84;79.21;96729.56;5046098;28;20053;-65
2023/11/20 01:01:02;;;;;;;0.20;0.20;;;;;;;2.96;79.22;96705.03;5047453;28;20041;-63
2023/11/20 01:03:29;;;;;;;0.20;0.20;;;;;;;2.93;78.46;96706.50;5046916;28;20061;-64
2023/11/20 01:05:58;;;;;;;0.30;0.30;;;;;;;2.98;78.77;96697.31;5046651;28;20071;-65
2023/11/20 01:08:25;;;;;;;0.20;0.20;;;;;;;3.12;77.68;96708.81;5061631;28;20045;-64
2023/11/20 01:10:51;;;;;;;0.20;0.20;;;;;;;3.09;76.57;96714.94;5061787;28;20511;-64
2023/11/20 01:13:18;;;;;;;0.30;0.30;;;;;;;2.86;78.40;96714.41;5047080;28;20423;-64
2023/11/20 01:15:45;;;;;;;0.30;0.30;;;;;;;2.90;79.18;96717.31;5046971;28;20528;-64
2023/11/20 01:18:12;;;;;;;0.20;0.20;;;;;;;3.16;77.67;96715.25;5045086;28;20057;-65
2023/11/20 01:20:38;;;;;;;0.30;0.30;;;;;;;3.25;78.53;96702.31;5046914;28;20099;-64
2023/11/20 01:23:05;;;;;;;0.20;0.20;;;;;;;3.34;78.12;96697.56;5046810;28;20504;-63
2023/11/20 01:25:32;;;;;;;0.20;0.20;;;;;;;3.43;76.98;96709.25;5045588;28;20084;-64
2023/11/20 01:27:59;;;;;;;0.30;0.30;;;;;;;2.98;75.26;96654.34;5045206;28;20049;-64
2023/11/20 01:30:27;;;;;;;0.20;0.20;;;;;;;3.30;76.09;96688.44;5046616;28;20091;-64
2023/11/20 01:32:54;;;;;;;0.20;0.20;;;;;;;3.20;76.93;96694.28;5046646;28;20053;-64
2023/11/20 01:35:21;;;;;;;0.20;0.20;;;;;;;3.31;76.67;96722.88;5046320;28;20450;-64
2023/11/20 01:37:48;;;;;;;0.22;0.22;;;;;;;3.49;77.55;96720.81;5046422;28;20084;-64
2023/11/20 01:40:15;;;;;;;0.20;0.20;;;;;;;3.25;77.36;96669.47;5046055;28;20044;-63
2023/11/20 01:42:42;;;;;;;0.30;0.30;;;;;;;2.54;77.14;96572.09;5046261;28;20067;-64
2023/11/20 01:45:09;;;;;;;0.20;0.20;;;;;;;3.47;78.48;96726.63;5061043;28;20135;-63
2023/11/20 01:47:39;;;;;;;0.28;0.28;;;;;;;3.65;77.29;96728.09;5046390;28;20132;-65
2023/11/20 01:50:11;;;;;;;0.20;0.20;;;;;;;3.75;76.67;96733.19;5061416;28;20551;-63
2023/11/20 01:52:47;;;;;;;0.20;0.20;;;;;;;3.74;77.03;96731.59;5045105;28;20045;-63
2023/11/20 01:55:15;;;;;;;0.20;0.20;;;;;;;3.80;76.79;96719.28;5046053;28;20586;-64
2023/11/20 01:57:46;;;;;;;0.20;0.20;;;;;;;3.70;75.47;96763.50;5044526;28;20131;-63
2023/11/20 02:00:15;;;;;;;0.28;0.28;;;;;;;3.65;76.58;96717.13;5045721;28;20539;-64
2023/11/20 02:02:43;;;;;;;0.20;0.20;;;;;;;3.19;77.27;96692.69;5061152;28;20067;-64
2023/11/20 02:05:10;;;;;;;0.20;0.20;;;;;;;3.27;76.95;96721.94;5046188;28;20053;-62
2023/11/20 02:07:37;;;;;;;0.20;0.20;;;;;;;3.46;77.50;96708.63;5046151;28;20151;-64
2023/11/20 02:10:05;;;;;;;0.20;0.20;;;;;;;3.60;77.70;96722.84;5044619;28;20053;-64
2023/11/20 02:12:32;;;;;;;0.20;0.20;;;;;;;3.57;77.98;96720.78;5045973;28;20056;-64
2023/11/20 02:14:59;;;;;;;0.30;0.30;;;;;;;3.69;77.82;96711.81;5045488;28;20056;-64
2023/11/20 02:17:26;;;;;;;0.28;0.28;;;;;;;3.73;76.21;96715.50;5045070;28;20111;-64
2023/11/20 02:19:53;;;;;;;0.20;0.20;;;;;;;3.27;76.33;96649.97;5044499;28;20503;-63
2023/11/20 02:22:20;;;;;;;0.22;0.22;;;;;;;3.96;75.90;96706.59;5045824;28;20053;-64
2023/11/20 02:24:47;;;;;;;0.25;0.25;;;;;;;3.96;75.44;96697.56;5046077;28;20057;-64
2023/11/20 02:27:36;;;;;;;0.20;0.20;;;;;;;4.01;75.94;96681.72;5044211;28;20134;-66
2023/11/20 02:30:04;;;;;;;0.30;0.30;;;;;;;3.91;76.12;96687.63;5044650;28;20087;-65
2023/11/20 02:32:31;;;;;;;0.30;0.30;;;;;;;2.45;75.67;96410.13;5044097;28;20052;-64
2023/11/20 02:34:59;;;;;;;0.30;0.30;;;;;;;4.21;74.40;96688.28;5043892;28;20527;-63
2023/11/20 02:37:29;;;;;;;0.20;0.20;;;;;;;4.11;74.91;96697.72;5045437;28;20056;-64
2023/11/20 02:39:56;;;;;;;0.25;0.25;;;;;;;1.60;75.87;96302.28;5044146;28;20057;-64
2023/11/20 02:42:23;;;;;;;0.30;0.30;;;;;;;4.11;76.00;96691.47;5045581;28;20056;-64
2023/11/20 02:44:52;;;;;;;0.30;0.30;;;;;;;3.89;76.80;96629.59;5045168;28;20096;-63
2023/11/20 02:47:22;;;;;;;0.20;0.20;;;;;;;4.02;76.03;96655.91;5045375;28;20049;-64
2023/11/20 02:49:49;;;;;;;0.20;0.20;;;;;;;4.32;75.57;96670.25;5044662;28;20052;-63
2023/11/20 02:52:16;;;;;;;0.20;0.20;;;;;;;4.46;75.48;96671.56;5044588;28;20147;-63
2023/11/20 02:54:44;;;;;;;0.22;0.22;;;;;;;4.42;75.59;96670.66;5060306;28;20057;-63
2023/11/20 02:57:11;;;;;;;0.30;0.30;;;;;;;4.51;75.69;96698.78;5044787;28;20346;-62
2023/11/20 02:59:38;;;;;;;0.22;0.22;;;;;;;3.02;75.76;96460.25;5044800;28;20048;-64
2023/11/20 03:02:05;;;;;;;0.22;0.22;;;;;;;4.66;74.68;96676.16;5044884;28;20056;-64
2023/11/20 03:04:32;;;;;;;0.30;0.30;;;;;;;4.74;75.65;96654.44;5044264;28;20045;-63
2023/11/20 03:06:59;;;;;;;0.30;0.30;;;;;;;4.91;75.64;96670.69;5044852;28;20053;-64
2023/11/20 03:09:26;;;;;;;0.20;0.20;;;;;;;4.55;76.73;96679.69;5044795;28;20061;-63
2023/11/20 03:11:53;;;;;;;0.30;0.30;;;;;;;4.61;76.83;96657.19;5044637;28;20474;-64
2023/11/20 03:14:20;;;;;;;0.30;0.30;;;;;;;4.66;77.40;96643.22;5044809;28;20148;-63
2023/11/20 03:16:47;;;;;;;0.30;0.30;;;;;;;4.66;75.89;96656.94;5059360;28;20060;-63
2023/11/20 03:19:15;;;;;;;0.20;0.20;;;;;;;4.70;76.72;96654.31;5044771;28;20072;-64
2023/11/20 03:21:43;;;;;;;0.30;0.30;;;;;;;4.31;76.63;96570.78;5044656;28;20213;-64
2023/11/20 03:24:10;;;;;;;0.30;0.30;;;;;;;4.44;76.59;96577.09;5044425;28;20514;-64
2023/11/20 03:26:37;;;;;;;0.30;0.30;;;;;;;4.68;75.85;96654.69;5044185;28;20133;-64
2023/11/20 03:29:04;;;;;;;0.30;0.30;;;;;;;4.32;76.72;96577.88;5044528;28;20075;-63
2023/11/20 03:31:36;;;;;;;0.30;0.30;;;;;;;4.77;76.10;96626.34;5044360;28;20080;-64
2023/11/20 03:34:04;;;;;;;0.30;0.30;;;;;;;2.53;76.44;96246.03;5043850;28;20060;-65
2023/11/20 03:36:33;;;;;;;0.20;0.20;;;;;;;5.11;75.19;96631.31;5015809;28;20820;-63
2023/11/20 03:39:00;;;;;;;0.25;0.25;;;;;;;4.57;76.80;96595.94;5023475;28;20677;-63
2023/11/20 03:41:27;;;;;;;0.30;0.30;;;;;;;5.04;76.38;96609.16;5022970;28;20053;-64
2023/11/20 03:43:54;;;;;;;0.30;0.30;;;;;;;4.79;76.95;96607.59;5024068;28;20496;-63
2023/11/20 03:46:21;;;;;;;0.28;0.28;;;;;;;4.33;76.81;96491.72;5023952;28;20053;-63
2023/11/20 03:48:48;;;;;;;0.30;0.30;;;;;;;4.41;76.64;96465.38;5022936;28;20049;-63
2023/11/20 03:51:18;;;;;;;0.30;0.30;;;;;;;5.11;76.71;96574.50;5022691;28;20124;-64
2023/11/20 03:53:45;;;;;;;0.30;0.30;;;;;;;5.46;86.87;96500.59;5024238;28;20144;-63
2023/11/20 03:56:12;;;;;;;0.30;0.30;;;;;;;6.09;76.30;96535.28;5022686;28;20071;-64
2023/11/20 03:58:40;;;;;;;0.30;0.30;;;;;;;5.86;76.37;96575.53;5022676;28;20142;-63
2023/11/20 04:01:07;;;;;;;0.30;0.30;;;;;;;5.45;76.88;96499.00;5022687;28;20049;-65
2023/11/20 04:03:34;;;;;;;0.30;0.30;;;;;;;5.64;77.69;96529.34;5024289;28;20054;-65
2023/11/20 04:06:01;;;;;;;0.30;0.30;;;;;;;5.40;77.54;96567.91;5023966;28;20156;-65
2023/11/20 04:08:28;;;;;;;0.35;0.35;;;;;;;5.30;77.87;96541.72;5024306;28;20049;-64
2023/11/20 04:10:54;;;;;;;0.30;0.30;;;;;;;2.95;77.23;96187.31;5024122;28;20056;-65
2023/11/20 04:13:21;;;;;;;0.30;0.30;;;;;;;4.80;76.86;96543.34;5043975;28;20063;-66
2023/11/20 04:15:48;;;;;;;0.30;0.30;;;;;;;5.41;77.10;96605.19;5044467;28;20056;-64
2023/11/20 04:18:15;;;;;;;0.30;0.30;;;;;;;5.46;77.32;96605.75;5043535;28;20076;-64
2023/11/20 04:20:42;;;;;;;0.30;0.30;;;;;;;5.48;75.79;96575.19;5043670;28;20129;-65
2023/11/20 04:23:09;;;;;;;0.30;0.30;;;;;;;5.70;74.74;96602.94;5043328;28;20053;-65
2023/11/20 04:25:36;;;;;;;0.30;0.30;;;;;;;5.27;75.79;96613.00;5043662;28;20419;-64
2023/11/20 04:28:03;;;;;;;0.30;0.30;;;;;;;5.45;76.32;96603.34;5059061;28;20053;-66
2023/11/20 04:30:30;;;;;;;0.30;0.30;;;;;;;5.48;76.76;96608.16;5043557;28;20048;-65
2023/11/20 04:32:56;;;;;;;0.30;0.30;;;;;;;4.57;76.67;96461.56;5043802;28;20053;-64
2023/11/20 04:35:23;;;;;;;0.30;0.30;;;;;;;5.70;76.76;96602.13;5054622;28;20071;-65
2023/11/20 04:37:50;;;;;;;0.30;0.30;;;;;;;5.39;77.73;96622.00;5063624;28;20048;-64
2023/11/20 04:40:17;;;;;;;0.30;0.30;;;;;;;5.33;77.80;96614.34;5063358;28;20059;-64
2023/11/20 04:42:44;;;;;;;0.30;0.30;;;;;;;5.45;77.90;96619.84;5063659;28;20063;-64
2023/11/20 04:45:12;;;;;;;0.30;0.30;;;;;;;5.57;77.86;96633.53;5063130;28;20584;-63
2023/11/20 04:47:40;;;;;;;0.30;0.30;;;;;;;5.67;77.42;96611.06;5045467;28;20506;-64
2023/11/20 04:50:11;;;;;;;0.30;0.30;;;;;;;5.69;76.47;96634.28;5045450;28;20518;-64
2023/11/20 04:52:38;;;;;;;0.30;0.30;;;;;;;5.71;77.25;96617.44;5063282;28;20432;-63
2023/11/20 04:55:05;;;;;;;0.30;0.30;;;;;;;3.93;77.11;96312.78;5063912;28;20079;-64
2023/11/20 04:57:33;;;;;;;0.30;0.30;;;;;;;5.27;76.40;96508.66;5063599;28;20056;-64
2023/11/20 05:00:03;;;;;;;0.30;0.30;;;;;;;6.01;76.69;96613.22;5045672;28;20127;-63
2023/11/20 05:02:29;;;;;;;0.30;0.30;;;;;;;6.11;75.37;96620.97;5062930;28;20048;-64
2023/11/20 05:04:56;;;;;;;0.30;0.30;;;;;;;6.11;75.46;96590.72;5063056;28;20060;-64
2023/11/20 05:07:24;;;;;;;0.40;0.40;;;;;;;5.81;75.82;96557.31;5045329;28;20057;-63
2023/11/20 05:09:51;;;;;;;0.30;0.30;;;;;;;6.02;76.17;96606.59;5063346;28;20048;-64
2023/11/20 05:12:17;;;;;;;0.30;0.30;;;;;;;5.35;76.31;96504.97;5045205;28;20064;-63
2023/11/20 05:14:45;;;;;;;0.30;0.30;;;;;;;5.51;79.21;96613.75;5065487;28;20647;-63
2023/11/20 05:17:17;;;;;;;0.30;0.30;;;;;;;5.25;80.17;96568.63;5066768;28;20110;-64
2023/11/20 05:19:44;;;;;;;0.30;0.30;;;;;;;5.46;80.24;96593.97;5048927;28;20049;-65
2023/11/20 05:22:14;;;;;;;0.30;0.30;;;;;;;5.92;79.12;96629.06;5066934;28;20048;-64
2023/11/20 05:24:41;;;;;;;0.30;0.30;;;;;;;5.64;79.18;96562.31;5065170;28;20056;-64
2023/11/20 05:27:09;;;;;;;0.30;0.30;;;;;;;5.98;79.06;96616.66;5067151;28;20628;-63
2023/11/20 05:29:39;;;;;;;0.30;0.30;;;;;;;6.14;78.08;96623.00;5066793;28;20055;-63
2023/11/20 05:32:06;;;;;;;0.32;0.32;;;;;;;5.96;79.06;96618.97;5048735;28;20139;-64
2023/11/20 05:34:33;;;;;;;0.30;0.30;;;;;;;6.06;79.26;96618.47;5049387;28;20064;-63
2023/11/20 05:37:01;;;;;;;0.30;0.30;;;;;;;5.98;78.69;96579.00;5066495;28;20076;-64
2023/11/20 05:39:28;;;;;;;0.30;0.30;;;;;;;6.26;77.46;96609.19;5066525;28;20133;-63
2023/11/20 05:41:54;;;;;;;0.30;0.30;;;;;;;6.18;78.55;96632.13;5065609;28;20530;-63
2023/11/20 05:44:21;;;;;;;0.30;0.30;;;;;;;6.41;77.88;96633.16;5065313;28;20052;-65
2023/11/20 05:46:48;;;;;;;0.40;0.40;;;;;;;6.26;77.70;96630.41;5064865;28;20052;-63
2023/11/20 05:49:15;;;;;;;0.30;0.30;;;;;;;6.41;77.36;96616.66;5064907;28;20044;-65
2023/11/20 05:51:42;;;;;;;0.35;0.35;;;;;;;6.70;76.42;96610.69;5063740;28;20469;-66
2023/11/20 05:54:09;;;;;;;0.38;0.38;;;;;;;7.01;75.82;96616.19;5064733;28;20507;-66
2023/11/20 05:56:36;;;;;;;0.40;0.40;;;;;;;7.23;73.83;96601.75;5066357;28;20080;-66
2023/11/20 05:59:04;;;;;;;0.40;0.40;;;;;;;7.17;73.60;96597.69;5065840;28;20083;-67
2023/11/20 06:01:40;;;;;;;0.40;0.40;;;;;;;7.18;73.86;96604.78;5066104;28;20143;-64
2023/11/20 06:04:08;;;;;;;0.40;0.40;;;;;;;6.50;74.87;96526.50;5065587;28;20129;-64
2023/11/20 06:06:36;;;;;;;0.30;0.30;;;;;;;5.22;75.60;96278.31;5065454;28;20497;-65
2023/11/20 06:09:10;;;;;;;0.40;0.40;;;;;;;7.44;75.10;96606.94;5066231;28;20135;-64
2023/11/20 06:11:37;;;;;;;0.40;0.40;;;;;;;7.27;74.49;96583.34;5065113;28;20094;-64
2023/11/20 06:14:03;;;;;;;0.40;0.40;;;;;;;7.40;74.06;96568.28;5046554;28;20056;-65
2023/11/20 06:16:30;;;;;;;0.40;0.40;;;;;;;7.69;73.81;96625.63;5045757;28;20495;-67
2023/11/20 06:18:57;;;;;;;0.40;0.40;;;;;;;7.78;73.69;96613.56;5047509;28;20106;-65
2023/11/20 06:21:24;;;;;;;0.40;0.40;;;;;;;7.63;74.42;96631.78;5047565;28;20578;-66
2023/11/20 06:23:51;;;;;;;0.40;0.40;;;;;;;7.55;76.67;96625.31;5065384;28;20060;-66
2023/11/20 06:26:18;;;;;;;0.40;0.40;;;;;;;7.70;74.76;96583.09;5064331;28;20053;-66
2023/11/20 06:28:45;;;;;;;0.40;0.40;;;;;;;8.09;73.46;96627.19;5065410;28;20052;-65
2023/11/20 06:31:12;;;;;;;0.40;0.40;;;;;;;7.92;71.89;96573.28;5064786;28;20056;-66
2023/11/20 06:33:39;;;;;;;0.40;0.40;;;;;;;8.76;71.63;96632.00;5065151;28;20498;-67
2023/11/20 06:36:09;;;;;;;0.40;0.40;;;;;;;6.63;72.79;96483.97;5065206;28;20498;-65
2023/11/20 06:38:36;;;;;;;0.40;0.40;;;;;;;7.98;72.78;96587.59;5065104;28;20479;-63
2023/11/20 06:41:03;;;;;;;0.40;0.40;;;;;;;8.55;72.91;96635.19;5080891;28;20052;-65
2023/11/20 06:43:30;;;;;;;0.43;0.43;;;;;;;8.96;71.48;96628.81;5063462;28;20055;-66
2023/11/20 06:45:59;;;;;;;0.40;0.40;;;;;;;8.89;69.89;96539.53;5065009;28;20509;-67
2023/11/20 06:48:28;;;;;;;0.40;0.40;;;;;;;9.68;68.79;96637.00;5046979;28;20056;-65
2023/11/20 06:50:55;;;;;;;0.40;0.40;;;;;;;9.31;68.67;96561.47;5065063;28;20426;-65
2023/11/20 06:53:22;;;;;;;0.40;0.40;;;;;;;10.04;68.24;96626.03;5064756;28;20063;-66
2023/11/20 06:55:49;;;;;;;0.40;0.40;;;;;;;10.43;67.35;96641.13;5046870;28;20062;-66
2023/11/20 06:58:15;;;;;;;0.43;0.43;;;;;;;10.76;65.15;96636.72;5064518;28;20061;-65
2023/11/20 07:00:42;;;;;;;0.50;0.50;;;;;;;10.82;65.27;96630.47;5064754;28;20048;-65
2023/11/20 07:03:09;;;;;;;0.50;0.50;;;;;;;10.34;63.97;96538.22;5059303;28;20458;-62
2023/11/20 07:05:37;;;;;;;0.43;0.43;;;;;;;11.42;63.12;96623.44;5062881;28;20455;-59
2023/11/20 07:08:07;;;;;;;0.50;0.50;;;;;;;11.68;62.38;96612.13;5062429;28;20048;-65
2023/11/20 07:10:34;;;;;;;0.50;0.50;;;;;;;12.08;61.22;96586.13;5046140;28;20055;-63
2023/11/20 07:13:02;;;;;;;0.50;0.50;;;;;;;11.70;59.07;96475.78;5063592;28;20477;-60
2023/11/20 07:15:29;;;;;;;0.60;0.60;;;;;;;12.72;56.95;96571.22;5062498;28;20044;-63
2023/11/20 07:17:56;;;;;;;0.60;0.60;;;;;;;13.44;53.99;96579.97;5063361;28;20063;-67
2023/11/20 07:20:23;;;;;;;0.60;0.60;;;;;;;14.06;52.52;96598.88;5046171;28;20822;-60
2023/11/20 07:22:50;;;;;;;0.60;0.60;;;;;;;14.29;50.99;96579.72;5061562;28;20127;-64
2023/11/20 07:25:16;;;;;;;0.70;0.70;;;;;;;14.73;50.11;96582.66;5063911;28;20052;-60
2023/11/20 07:27:43;;;;;;;0.60;0.60;;;;;;;14.63;49.96;96544.47;5045598;28;20053;-64
2023/11/20 07:30:11;;;;;;;0.70;0.70;;;;;;;14.86;49.51;96555.84;5045255;28;20045;-65
2023/11/20 07:32:38;;;;;;;0.60;0.60;;;;;;;15.23;48.47;96583.84;5028054;28;20069;-61
2023/11/20 07:35:06;;;;;;;0.60;0.60;;;;;;;14.66;48.23;96454.44;5057680;28;20059;-60
2023/11/20 07:37:34;;;;;;;0.70;0.70;;;;;;;15.14;47.19;96485.91;5060145;28;20052;-62
2023/11/20 07:40:00;;;;;;;0.70;0.70;;;;;;;15.37;46.85;96555.81;5044907;28;20044;-63
2023/11/20 07:42:27;;;;;;;0.70;0.70;;;;;;;15.50;46.59;96565.31;5062068;28;20051;-60
2023/11/20 07:44:54;;;;;;;0.70;0.70;;;;;;;15.64;46.10;96562.34;5062898;28;20060;-65
2023/11/20 07:47:21;;;;;;;0.70;0.70;;;;;;;15.98;45.62;96562.38;5062283;28;20051;-65
2023/11/20 07:49:48;;;;;;;0.70;0.70;;;;;;;16.24;45.02;96570.84;5045238;28;20526;-61
2023/11/20 07:52:15;;;;;;;0.70;0.70;;;;;;;16.64;44.21;96561.50;5063318;28;20509;-61
2023/11/20 07:54:43;;;;;;;0.63;0.63;;;;;;;16.74;44.48;96542.22;5056821;28;20128;-59
2023/11/20 07:57:11;;;;;;;0.70;0.70;;;;;;;16.68;43.52;96567.06;5062632;28;20045;-60
2023/11/20 07:59:38;;;;;;;0.70;0.70;;;;;;;16.55;43.85;96564.06;5043368;28;20105;-63
2023/11/20 08:02:07;;;;;;;0.70;0.70;;;;;;;16.28;43.50;96507.28;5062939;28;20418;-57
2023/11/20 08:04:34;;;;;;;0.70;0.70;;;;;;;16.61;43.43;96523.22;5058666;28;20056;-61
2023/11/20 08:07:02;;;;;;;0.68;0.68;;;;;;;16.39;43.20;96460.41;5061435;28;20431;-63
2023/11/20 08:09:29;;;;;;;0.70;0.70;;;;;;;17.05;42.62;96557.72;5061939;28;20131;-59
2023/11/20 08:11:55;;;;;;;0.70;0.70;;;;;;;17.10;41.83;96543.25;5062526;28;20048;-62
2023/11/20 08:14:22;;;;;;;0.73;0.73;;;;;;;16.80;41.94;96499.38;5047445;28;20070;-62
2023/11/20 08:16:49;;;;;;;0.70;0.70;;;;;;;16.90;42.16;96547.97;5062561;28;20091;-60
2023/11/20 08:19:16;;;;;;;0.68;0.68;;;;;;;16.28;42.13;96459.78;5062849;28;20056;-63
2023/11/20 08:21:43;;;;;;;0.70;0.70;;;;;;;16.75;41.91;96561.38;5045421;28;20102;-58
2023/11/20 08:24:11;;;;;;;0.70;0.70;;;;;;;16.54;41.48;96475.78;5062303;28;20044;-61
2023/11/20 08:26:38;;;;;;;0.70;0.70;;;;;;;16.67;42.03;96497.56;5063265;28;20052;-61
2023/11/20 08:29:06;;;;;;;0.70;0.70;;;;;;;16.76;41.41;96486.63;5043903;28;20059;-63
2023/11/20 08:31:33;;;;;;;0.70;0.70;;;;;;;17.16;41.14;96538.75;5063061;28;20136;-60
2023/11/20 08:34:00;;;;;;;0.70;0.70;;;;;;;17.17;40.83;96560.69;5061116;28;20094;-62
2023/11/20 08:36:27;;;;;;;0.65;0.65;;;;;;;15.55;41.47;96238.25;5062876;28;20560;-62
2023/11/20 08:38:53;;;;;;;0.70;0.70;;;;;;;17.44;40.92;96508.28;5049083;28;20050;-62
2023/11/20 08:41:22;;;;;;;0.80;0.80;;;;;;;17.39;39.98;96488.31;5059550;28;20509;-63
2023/11/20 08:43:49;;;;;;;0.70;0.70;;;;;;;17.40;40.40;96512.31;5062448;28;20053;-62
2023/11/20 08:46:16;;;;;;;0.70;0.70;;;;;;;17.25;40.34;96488.59;5061175;28;20075;-60
2023/11/20 08:48:42;;;;;;;0.80;0.80;;;;;;;17.02;40.29;96457.81;5062490;28;20527;-62
2023/11/20 08:51:09;;;;;;;0.70;0.70;;;;;;;17.29;40.59;96550.91;5052376;28;20062;-61
2023/11/20 08:53:36;;;;;;;0.60;0.60;;;;;;;17.15;41.26;96534.38;5048869;28;20044;-60
2023/11/20 08:56:03;;;;;;;0.70;0.70;;;;;;;16.74;41.25;96494.69;5066299;28;20055;-63
2023/11/20 08:58:31;;;;;;;0.70;0.70;;;;;;;16.38;41.56;96491.56;5064602;28;20067;-62
2023/11/20 09:00:59;;;;;;;0.70;0.70;;;;;;;16.82;41.47;96536.09;5050837;28;20410;-60
2023/11/20 09:03:26;;;;;;;0.70;0.70;;;;;;;16.34;42.12;96513.97;5064397;28;20287;-61
2023/11/20 09:05:52;;;;;;;0.63;0.63;;;;;;;16.32;42.69;96569.53;5064942;28;20048;-58
2023/11/20 09:08:19;;;;;;;0.60;0.60;;;;;;;15.66;43.18;96484.56;5066351;28;20044;-63
2023/11/20 09:10:46;;;;;;;0.60;0.60;;;;;;;15.89;43.82;96564.88;5064338;28;20050;-61
2023/11/20 09:13:13;;;;;;;0.68;0.68;;;;;;;15.84;44.17;96540.97;5047722;28;20053;-64
2023/11/20 09:15:39;;;;;;;0.70;0.70;;;;;;;16.02;44.15;96526.81;5054966;28;20075;-61
2023/11/20 09:18:06;;;;;;;0.60;0.60;;;;;;;16.31;43.65;96542.00;5061299;28;20056;-62
2023/11/20 09:20:34;;;;;;;0.70;0.70;;;;;;;15.87;43.04;96445.19;5058597;28;20069;-57
2023/11/20 09:23:00;;;;;;;0.70;0.70;;;;;;;16.57;42.73;96504.91;5064320;28;20849;-63
2023/11/20 09:25:29;;;;;;;0.70;0.70;;;;;;;17.10;42.33;96515.25;5065788;28;20060;-61
2023/11/20 09:27:59;;;;;;;0.70;0.70;;;;;;;17.42;41.91;96504.31;5062329;28;20084;-60
2023/11/20 09:30:26;;;;;;;0.70;0.70;;;;;;;17.52;41.28;96483.72;5049546;28;20401;-59
2023/11/20 09:32:53;;;;;;;0.80;0.80;;;;;;;17.55;41.25;96496.84;5062858;28;20052;-59
2023/11/20 09:35:21;;;;;;;0.70;0.70;;;;;;;17.77;41.38;96503.63;5044938;28;20052;-62
2023/11/20 09:37:47;;;;;;;0.70;0.70;;;;;;;17.67;40.81;96482.25;5064045;28;20049;-69
2023/11/20 09:40:14;;;;;;;0.70;0.70;;;;;;;17.81;40.55;96507.16;5047225;28;20049;-64
2023/11/20 09:42:43;;;;;;;0.70;0.70;;;;;;;17.64;41.55;96486.69;5063649;28;20052;-63
2023/11/20 09:45:27;;;;;;;0.70;0.70;;;;;;;17.39;41.38;96466.72;5058279;28;20151;-62
2023/11/20 09:47:55;;;;;;;;;;;;;;;17.99;40.35;96476.75;5047237;28;20068;-63
2023/11/20 09:50:26;;;;;;;0.70;0.70;;;;;;;18.18;40.04;96461.16;5065970;28;19924;-60
2023/11/20 09:52:55;;;;;;;0.80;0.80;;;;;;;18.46;39.31;96461.34;5032037;28;20901;-60
2023/11/20 09:55:24;;;;;;;0.77;0.77;;;;;;;18.53;39.43;96458.34;5058020;28;20060;-61
2023/11/20 09:57:51;;;;;;;0.70;0.70;;;;;;;18.23;39.97;96478.25;5063884;28;20079;-61
2023/11/20 10:00:18;;;;;;;0.75;0.75;;;;;;;18.08;40.86;96479.78;5061623;28;20064;-62
2023/11/20 10:02:47;;;;;;;0.70;0.70;;;;;;;17.77;40.77;96481.22;5063380;28;20503;-62
2023/11/20 10:05:20;;;;;;;0.70;0.70;;;;;;;17.10;40.79;96436.91;5060983;28;20439;-61
2023/11/20 10:08:00;;;;;;;0.75;0.75;;;;;;;17.48;41.03;96480.97;5049046;28;20055;-61
2023/11/20 10:10:29;;;;;;;0.70;0.70;;;;;;;17.79;40.53;96450.75;5065562;28;20056;-60
2023/11/20 10:13:00;;;;;;;0.60;0.60;;;;;;;18.10;40.40;96483.72;5065227;28;20055;-61
2023/11/20 10:15:27;;;;;;;0.80;0.80;;;;;;;17.75;40.63;96439.63;5063898;28;20435;-62
2023/11/20 10:17:54;;;;;;;0.77;0.77;;;;;;;18.04;40.14;96473.44;5064915;28;20510;-64
2023/11/20 10:20:21;;;;;;;0.70;0.70;;;;;;;17.99;40.15;96455.13;5046807;28;20726;-60
2023/11/20 10:22:49;;;;;;;0.70;0.70;;;;;;;18.10;40.41;96483.72;5064577;28;20071;-62
2023/11/20 10:25:17;;;;;;;0.80;0.80;;;;;;;17.71;40.54;96426.91;5064872;28;20159;-61
2023/11/20 10:27:43;;;;;;;0.70;0.70;;;;;;;18.00;40.70;96495.16;5046261;28;20059;-61
2023/11/20 10:30:11;;;;;;;0.70;0.70;;;;;;;17.71;41.18;96477.34;5064944;28;20076;-61
2023/11/20 10:32:41;;;;;;;0.70;0.70;;;;;;;17.53;40.77;96426.50;5047211;28;20666;-61
2023/11/20 10:35:15;;;;;;;0.70;0.70;;;;;;;18.06;40.22;96476.63;5065112;28;20185;-61
2023/11/20 10:37:59;;;;;;;0.70;0.70;;;;;;;18.39;40.09;96467.09;5064282;28;20053;-60
2023/11/20 10:40:26;;;;;;;0.77;0.77;;;;;;;18.14;40.02;96455.63;5065119;28;20059;-61
2023/11/20 10:42:53;;;;;;;0.70;0.70;;;;;;;18.16;39.80;96458.00;5062627;28;20430;-60
2023/11/20 10:45:21;;;;;;;0.80;0.80;;;;;;;18.43;39.65;96456.56;5047142;28;20084;-60
2023/11/20 10:47:49;;;;;;;0.70;0.70;;;;;;;18.11;39.23;96372.41;5064770;28;20040;-60
2023/11/20 10:50:17;;;;;;;0.70;0.70;;;;;;;18.34;39.22;96428.31;5064983;28;20137;-62
2023/11/20 10:52:46;;;;;;;0.77;0.77;;;;;;;18.17;39.24;96397.88;5045708;28;20057;-61
2023/11/20 10:55:14;;;;;;;0.70;0.70;;;;;;;18.58;38.72;96459.84;5057513;28;20110;-63
2023/11/20 10:57:41;;;;;;;0.80;0.80;;;;;;;18.30;38.26;96412.81;5063042;28;20063;-62
2023/11/20 11:00:10;;;;;;;0.80;0.80;;;;;;;18.29;39.60;96454.06;5062976;28;20059;-62
2023/11/20 11:02:42;;;;;;;0.80;0.80;;;;;;;18.45;39.82;96476.56;5064142;28;20048;-62
2023/11/20 11:05:10;;;;;;;0.70;0.70;;;;;;;17.93;39.89;96405.63;5064116;28;20531;-61
2023/11/20 11:07:42;;;;;;;0.73;0.73;;;;;;;17.26;40.46;96297.03;5064080;28;20431;-63
2023/11/20 11:10:14;;;;;;;0.80;0.80;;;;;;;18.14;40.29;96455.63;5063863;28;20531;-60
2023/11/20 11:12:42;;;;;;;0.80;0.80;;;;;;;18.31;40.20;96451.63;5045743;28;20102;-60
2023/11/20 11:15:13;;;;;;;0.70;0.70;;;;;;;18.09;39.76;96419.69;5046486;28;20506;-62
2023/11/20 11:17:58;;;;;;;0.75;0.75;;;;;;;18.06;39.73;96438.19;5045916;28;20064;-63
2023/11/20 11:20:31;;;;;;;0.70;0.70;;;;;;;17.96;40.16;96486.03;5064426;28;20056;-62
2023/11/20 11:23:00;;;;;;;0.80;0.80;;;;;;;17.71;39.95;96418.50;5064334;28;20078;-62
2023/11/20 11:25:29;;;;;;;0.80;0.80;;;;;;;17.31;40.12;96380.53;5046289;28;20052;-61
2023/11/20 11:27:56;;;;;;;0.80;0.80;;;;;;;17.73;40.24;96480.50;5063980;28;20109;-61
2023/11/20 11:30:25;;;;;;;0.80;0.80;;;;;;;16.88;40.39;96330.19;5046294;28;20059;-62
2023/11/20 11:33:15;;;;;;;0.80;0.80;;;;;;;17.45;40.46;96413.88;5062742;28;20055;-62
2023/11/20 11:36:05;;;;;;;0.80;0.80;;;;;;;17.56;40.55;96425.66;5064278;28;20138;-62
2023/11/20 11:38:38;;;;;;;0.70;0.70;;;;;;;17.80;40.70;96449.53;5035410;28;20055;-62
2023/11/20 11:41:35;;;;;;;0.80;0.80;;;;;;;17.80;40.64;96450.34;5063968;28;20139;-62
2023/11/20 11:44:08;;;;;;;0.80;0.80;;;;;;;16.18;41.04;96241.97;5063617;28;20062;-60